createdAt,value
2019-06-25T00:00:44.450Z,66.40
2019-06-25T00:02:37.454Z,68.78
2019-06-25T00:03:37.520Z,62.70
2019-06-25T00:05:30.552Z,63.47
2019-06-25T00:06:30.602Z,64.05
2019-06-25T00:08:23.585Z,66.08
2019-06-25T00:09:23.657Z,66.17
2019-06-25T00:11:16.684Z,64.92
2019-06-25T00:12:16.721Z,65.01
2019-06-25T00:14:09.718Z,63.76
2019-06-25T00:15:09.785Z,62.79
2019-06-25T00:17:02.918Z,60.47
2019-06-25T00:18:02.848Z,58.64
2019-06-25T00:19:55.851Z,59.51
2019-06-25T00:20:55.912Z,65.17
2019-06-25T00:22:48.946Z,58.80
2019-06-25T00:23:48.980Z,55.42
2019-06-25T00:25:41.994Z,56.68
2019-06-25T00:26:42.049Z,61.22
2019-06-25T00:28:35.068Z,59.22
2019-06-25T00:29:35.115Z,60.35
2019-06-25T00:31:28.125Z,58.51
2019-06-25T00:32:28.181Z,56.68
2019-06-25T00:34:21.199Z,58.42
2019-06-25T00:35:21.246Z,56.20
2019-06-25T00:37:14.269Z,54.65
2019-06-25T00:38:14.309Z,55.52
2019-06-25T00:40:07.329Z,58.80
2019-06-25T00:41:07.373Z,55.71
2019-06-25T00:43:00.437Z,63.82
2019-06-25T00:44:00.444Z,63.92
2019-06-25T00:45:53.476Z,56.39
2019-06-25T00:46:53.520Z,54.84
2019-06-25T00:48:46.529Z,56.39
2019-06-25T00:49:46.597Z,54.27
2019-06-25T00:51:39.613Z,57.71
2019-06-25T00:52:39.656Z,56.56
2019-06-25T00:54:32.674Z,57.45
2019-06-25T00:55:32.723Z,58.39
2019-06-25T00:57:25.747Z,57.81
2019-06-25T00:58:25.788Z,57.42
2019-06-25T01:00:18.786Z,54.82
2019-06-25T01:01:18.854Z,54.72
2019-06-25T01:03:11.876Z,55.78
2019-06-25T01:04:11.923Z,55.59
2019-06-25T01:06:04.924Z,59.74
2019-06-25T01:07:04.994Z,62.34
2019-06-25T01:08:58.027Z,64.47
2019-06-25T01:09:58.058Z,59.16
2019-06-25T01:11:51.064Z,58.00
2019-06-25T01:12:51.133Z,57.04
2019-06-25T01:14:44.147Z,57.62
2019-06-25T01:15:44.194Z,59.64
2019-06-25T01:17:37.237Z,65.82
2019-06-25T01:18:37.269Z,65.05
2019-06-25T01:20:30.261Z,64.43
2019-06-25T01:21:30.366Z,64.24
2019-06-25T01:23:23.351Z,64.92
2019-06-25T01:24:23.392Z,63.57
2019-06-25T01:26:16.389Z,64.72
2019-06-25T01:27:16.450Z,64.92
2019-06-25T01:29:09.486Z,65.01
2019-06-25T01:30:09.536Z,64.82
2019-06-25T01:32:02.549Z,66.08
2019-06-25T01:33:02.591Z,65.98
2019-06-25T01:34:55.616Z,65.98
2019-06-25T01:35:55.666Z,64.53
2019-06-25T01:37:48.686Z,64.92
2019-06-25T01:38:48.721Z,64.92
2019-06-25T01:40:41.714Z,62.31
2019-06-25T01:41:41.782Z,61.54
2019-06-25T01:43:34.809Z,63.67
2019-06-25T01:44:34.846Z,63.57
2019-06-25T01:46:27.851Z,57.39
2019-06-25T01:47:27.913Z,60.28
2019-06-25T01:49:20.931Z,65.40
2019-06-25T01:50:20.974Z,64.82
2019-06-25T01:52:13.971Z,66.75
2019-06-25T01:53:14.035Z,61.54
2019-06-25T01:55:07.113Z,62.22
2019-06-25T01:56:07.098Z,65.17
2019-06-25T01:58:00.097Z,65.27
2019-06-25T01:59:00.162Z,62.28
2019-06-25T02:00:53.189Z,64.63
2019-06-25T02:01:53.229Z,61.80
2019-06-25T02:03:46.321Z,61.22
2019-06-25T02:04:48.362Z,59.97
2019-06-25T02:06:39.324Z,56.88
2019-06-25T02:07:39.356Z,64.02
2019-06-25T02:09:32.364Z,66.14
2019-06-25T02:10:32.425Z,68.65
2019-06-25T02:12:25.468Z,66.14
2019-06-25T02:13:25.495Z,68.45
2019-06-25T02:15:18.524Z,64.98
2019-06-25T02:16:18.577Z,68.45
2019-06-25T02:18:11.561Z,68.26
2019-06-25T02:19:11.619Z,68.55
2019-06-25T02:21:04.648Z,64.98
2019-06-25T02:22:04.683Z,65.85
2019-06-25T02:23:57.689Z,65.08
2019-06-25T02:24:57.750Z,67.00
2019-06-25T02:26:50.778Z,69.90
2019-06-25T02:27:50.817Z,68.84
2019-06-25T02:29:43.816Z,65.85
2019-06-25T02:31:01.530Z,67.78
2019-06-25T02:32:36.928Z,65.75
2019-06-25T02:33:36.942Z,62.18
2019-06-25T02:35:29.966Z,62.38
2019-06-25T02:36:30.006Z,60.61
2019-06-25T02:38:23.040Z,55.51
2019-06-25T02:39:23.069Z,53.58
2019-06-25T02:41:16.065Z,54.35
2019-06-25T02:42:16.187Z,55.51
2019-06-25T02:44:09.158Z,49.63
2019-06-25T02:45:09.209Z,58.01
2019-06-25T02:47:02.195Z,54.93
2019-06-25T02:48:02.262Z,60.52
2019-06-25T02:49:55.285Z,60.61
2019-06-25T02:50:55.371Z,62.15
2019-06-25T02:52:48.321Z,56.09
2019-06-25T02:53:48.383Z,54.93
2019-06-25T02:55:41.404Z,56.85
2019-06-25T02:56:41.457Z,60.52
2019-06-25T02:58:34.453Z,60.32
2019-06-25T02:59:34.518Z,61.00
2019-06-25T03:01:29.646Z,63.31
2019-06-25T03:02:27.583Z,61.29
2019-06-25T03:04:20.645Z,60.71
2019-06-25T03:05:20.646Z,59.94
2019-06-25T03:07:13.644Z,59.27
2019-06-25T03:08:13.728Z,61.48
2019-06-25T03:10:06.748Z,63.02
2019-06-25T03:11:06.786Z,61.19
2019-06-25T03:12:59.783Z,61.29
2019-06-25T03:13:59.850Z,63.57
2019-06-25T03:15:52.858Z,62.15
2019-06-25T03:16:52.917Z,57.82
2019-06-25T03:18:45.908Z,60.32
2019-06-25T03:19:45.967Z,62.12
2019-06-25T03:21:38.981Z,60.30
2019-06-25T03:22:39.037Z,61.74
2019-06-25T03:24:32.036Z,62.25
2019-06-25T03:25:32.110Z,62.15
2019-06-25T03:27:25.098Z,62.35
2019-06-25T03:28:25.150Z,61.93
2019-06-25T03:30:18.196Z,62.15
2019-06-25T03:31:18.202Z,61.87
2019-06-25T03:33:11.218Z,60.97
2019-06-25T03:34:11.264Z,59.07
2019-06-25T03:36:04.276Z,60.39
2019-06-25T03:37:04.320Z,59.23
2019-06-25T03:38:57.324Z,60.61
2019-06-25T03:39:57.394Z,62.35
2019-06-25T03:41:50.401Z,63.70
2019-06-25T03:42:50.434Z,63.12
2019-06-25T03:44:43.446Z,64.66
2019-06-25T03:45:43.491Z,64.66
2019-06-25T03:47:36.484Z,65.78
2019-06-25T03:48:36.549Z,62.83
2019-06-25T03:50:29.572Z,64.95
2019-06-25T03:51:31.641Z,65.69
2019-06-25T03:53:22.627Z,65.33
2019-06-25T03:54:22.681Z,65.63
2019-06-25T03:56:15.780Z,64.86
2019-06-25T03:57:15.734Z,65.33
2019-06-25T03:59:08.724Z,65.72
2019-06-25T04:00:08.787Z,65.53
2019-06-25T04:02:16.550Z,65.63
2019-06-25T04:03:02.012Z,66.30
2019-06-25T04:04:54.847Z,64.95
2019-06-25T04:05:54.910Z,67.26
2019-06-25T04:07:47.943Z,67.46
2019-06-25T04:08:47.970Z,67.16
2019-06-25T04:10:40.967Z,65.63
2019-06-25T04:11:41.037Z,64.95
2019-06-25T04:13:34.131Z,65.91
2019-06-25T04:14:34.109Z,66.78
2019-06-25T04:16:27.092Z,65.91
2019-06-25T04:17:27.161Z,65.27
2019-06-25T04:19:20.168Z,68.23
2019-06-25T04:20:20.219Z,68.71
2019-06-25T04:22:13.214Z,71.02
2019-06-25T04:23:13.286Z,71.25
2019-06-25T04:25:06.301Z,69.32
2019-06-25T04:26:06.352Z,70.00
2019-06-25T04:27:59.346Z,73.66
2019-06-25T04:28:59.407Z,71.34
2019-06-25T04:30:52.483Z,68.84
2019-06-25T04:31:52.468Z,68.16
2019-06-25T04:33:45.482Z,70.57
2019-06-25T04:34:45.532Z,71.83
2019-06-25T04:36:38.581Z,71.67
2019-06-25T04:37:38.594Z,74.27
2019-06-25T04:39:31.593Z,73.54
2019-06-25T04:40:31.654Z,72.86
2019-06-25T04:42:24.681Z,72.28
2019-06-25T04:43:24.733Z,73.35
2019-06-25T04:45:17.733Z,67.07
2019-06-25T04:46:17.788Z,73.83
2019-06-25T04:48:10.798Z,77.40
2019-06-25T04:49:10.847Z,74.83
2019-06-25T04:51:04.355Z,77.53
2019-06-25T04:52:04.655Z,75.47
2019-06-25T04:53:57.430Z,75.89
2019-06-25T04:54:57.479Z,79.56
2019-06-25T04:56:50.470Z,77.53
2019-06-25T04:57:50.541Z,76.57
2019-06-25T04:59:43.546Z,80.53
2019-06-25T05:00:43.600Z,78.99
2019-06-25T05:02:49.090Z,78.02
2019-06-25T05:03:36.663Z,77.34
2019-06-25T05:05:29.677Z,77.44
2019-06-25T05:06:29.727Z,79.27
2019-06-25T05:08:22.742Z,79.08
2019-06-25T05:09:22.814Z,77.25
2019-06-25T05:11:15.812Z,79.31
2019-06-25T05:12:15.865Z,81.68
2019-06-25T05:14:08.882Z,80.72
2019-06-25T05:15:08.954Z,80.14
2019-06-25T05:17:01.955Z,79.50
2019-06-25T05:18:02.003Z,79.50
2019-06-25T05:19:57.541Z,81.05
2019-06-25T05:20:55.067Z,81.44
2019-06-25T05:22:48.088Z,82.89
2019-06-25T05:23:48.143Z,82.02
2019-06-25T05:25:41.153Z,81.24
2019-06-25T05:26:41.202Z,82.02
2019-06-25T05:28:34.263Z,79.50
2019-06-25T05:29:34.306Z,77.73
2019-06-25T05:31:27.307Z,78.59
2019-06-25T05:32:27.376Z,78.50
2019-06-25T05:34:20.381Z,76.51
2019-06-25T05:35:20.432Z,74.10
2019-06-25T05:37:13.486Z,75.26
2019-06-25T05:38:13.506Z,74.58
2019-06-25T05:40:06.520Z,74.58
2019-06-25T05:41:06.564Z,76.42
2019-06-25T05:42:59.562Z,75.74
2019-06-25T05:43:59.636Z,75.97
2019-06-25T05:45:52.651Z,76.16
2019-06-25T05:46:52.697Z,73.84
2019-06-25T05:48:45.699Z,79.25
2019-06-25T05:49:45.763Z,82.58
2019-06-25T05:51:39.284Z,81.71
2019-06-25T05:52:39.334Z,81.52
2019-06-25T05:54:32.332Z,81.75
2019-06-25T05:55:32.399Z,81.65
2019-06-25T05:57:25.415Z,83.30
2019-06-25T05:58:25.465Z,84.11
2019-06-25T06:00:18.496Z,84.11
2019-06-25T06:01:18.540Z,84.11
2019-06-25T06:03:20.108Z,83.25
2019-06-25T06:04:11.633Z,82.80
2019-06-25T06:06:04.610Z,84.35
2019-06-25T06:07:04.658Z,84.83
2019-06-25T06:08:57.667Z,84.88
2019-06-25T06:09:57.720Z,84.39
2019-06-25T06:11:50.746Z,84.05
2019-06-25T06:12:50.785Z,83.75
2019-06-25T06:14:43.806Z,81.80
2019-06-25T06:15:43.875Z,81.16
2019-06-25T06:17:36.894Z,75.95
2019-06-25T06:18:36.945Z,71.17
2019-06-25T06:20:29.948Z,59.81
2019-06-25T06:21:30.014Z,56.20
2019-06-25T06:23:23.038Z,53.53
2019-06-25T06:24:23.087Z,52.29
2019-06-25T06:26:18.853Z,48.60
2019-06-25T06:27:16.173Z,46.67
2019-06-25T06:29:09.205Z,47.99
2019-06-25T06:30:09.246Z,48.50
2019-06-25T06:32:02.253Z,47.42
2019-06-25T06:33:02.322Z,47.16
2019-06-25T06:34:55.346Z,47.77
2019-06-25T06:35:55.397Z,48.99
2019-06-25T06:37:48.435Z,51.98
2019-06-25T06:38:48.488Z,51.98
2019-06-25T06:40:41.495Z,51.81
2019-06-25T06:41:41.573Z,51.34
2019-06-25T06:43:34.574Z,49.51
2019-06-25T06:44:34.642Z,49.11
2019-06-25T06:46:27.666Z,48.33
2019-06-25T06:47:27.721Z,49.11
2019-06-25T06:49:20.736Z,48.43
2019-06-25T06:50:20.824Z,49.16
2019-06-25T06:52:15.055Z,50.56
2019-06-25T06:53:13.901Z,50.56
2019-06-25T06:55:06.908Z,50.63
2019-06-25T06:56:06.981Z,50.54
2019-06-25T06:58:00.022Z,51.07
2019-06-25T06:59:00.079Z,49.04
2019-06-25T07:00:53.115Z,48.36
2019-06-25T07:01:53.163Z,48.68
2019-06-25T07:03:52.947Z,47.08
2019-06-25T07:04:46.246Z,46.12
2019-06-25T07:06:39.256Z,45.75
2019-06-25T07:07:39.332Z,44.49
2019-06-25T07:09:32.363Z,44.37
2019-06-25T07:10:32.448Z,45.65
2019-06-25T07:12:25.471Z,44.73
2019-06-25T07:13:25.518Z,45.88
2019-06-25T07:15:18.532Z,47.16
2019-06-25T07:16:18.610Z,46.41
2019-06-25T07:18:11.639Z,43.22
2019-06-25T07:19:11.695Z,42.94
2019-06-25T07:21:04.708Z,42.96
2019-06-25T07:22:04.783Z,42.86
2019-06-25T07:23:57.833Z,42.35
2019-06-25T07:24:57.892Z,43.69
2019-06-25T07:26:50.922Z,45.41
2019-06-25T07:27:50.980Z,44.74
2019-06-25T07:29:44.027Z,43.22
2019-06-25T07:30:44.068Z,44.12
2019-06-25T07:32:39.015Z,42.00
2019-06-25T07:33:37.158Z,41.39
2019-06-25T07:35:30.174Z,41.51
2019-06-25T07:36:30.251Z,40.64
2019-06-25T07:38:23.285Z,41.43
2019-06-25T07:39:23.348Z,41.06
2019-06-25T07:41:16.361Z,40.56
2019-06-25T07:42:16.454Z,41.78
2019-06-25T07:44:09.473Z,39.89
2019-06-25T07:45:09.714Z,40.37
2019-06-25T07:47:02.550Z,40.78
2019-06-25T07:48:02.632Z,41.08
2019-06-25T07:49:55.675Z,41.33
2019-06-25T07:50:55.731Z,40.98
2019-06-25T07:52:48.776Z,40.29
2019-06-25T07:53:48.833Z,42.36
2019-06-25T07:55:41.871Z,45.06
2019-06-25T07:56:41.953Z,44.00
2019-06-25T07:58:34.989Z,43.66
2019-06-25T07:59:35.051Z,43.78
2019-06-25T08:01:28.086Z,44.37
2019-06-25T08:02:28.147Z,43.41
2019-06-25T08:04:25.501Z,42.85
2019-06-25T08:05:21.245Z,42.72
2019-06-25T08:07:14.268Z,43.41
2019-06-25T08:08:14.343Z,42.52
2019-06-25T08:10:07.385Z,42.38
2019-06-25T08:11:07.443Z,42.61
2019-06-25T08:13:00.486Z,43.93
2019-06-25T08:14:00.546Z,44.35
2019-06-25T08:15:53.642Z,44.20
2019-06-25T08:16:53.646Z,42.46
2019-06-25T08:18:46.697Z,42.68
2019-06-25T08:19:46.744Z,44.53
2019-06-25T08:21:39.778Z,43.37
2019-06-25T08:22:39.847Z,43.46
2019-06-25T08:24:32.889Z,43.56
2019-06-25T08:25:32.963Z,44.53
2019-06-25T08:27:26.029Z,42.83
2019-06-25T08:28:26.087Z,41.39
2019-06-25T08:30:19.089Z,40.69
2019-06-25T08:31:19.156Z,40.96
2019-06-25T08:33:12.192Z,40.88
2019-06-25T08:34:12.260Z,41.10
2019-06-25T08:36:05.300Z,40.50
2019-06-25T08:37:05.367Z,40.55
2019-06-25T08:38:58.523Z,38.36
2019-06-25T08:39:58.476Z,37.96
2019-06-25T08:41:51.522Z,37.55
2019-06-25T08:42:51.584Z,39.14
2019-06-25T08:44:44.635Z,41.12
2019-06-25T08:45:44.704Z,39.54
2019-06-25T08:47:37.746Z,40.19
2019-06-25T08:48:37.817Z,38.92
2019-06-25T08:50:30.843Z,38.67
2019-06-25T08:51:30.924Z,39.91
2019-06-25T08:53:23.985Z,41.08
2019-06-25T08:54:24.035Z,40.92
2019-06-25T08:56:17.074Z,39.89
2019-06-25T08:57:17.148Z,39.28
2019-06-25T08:59:10.184Z,39.40
2019-06-25T09:00:10.253Z,39.00
2019-06-25T09:02:03.299Z,39.58
2019-06-25T09:03:03.391Z,39.16
2019-06-25T09:04:58.629Z,38.67
2019-06-25T09:05:56.471Z,38.47
2019-06-25T09:07:49.499Z,37.93
2019-06-25T09:08:49.589Z,37.02
2019-06-25T09:10:42.920Z,38.09
2019-06-25T09:11:42.690Z,37.85
2019-06-25T09:13:35.735Z,36.79
2019-06-25T09:14:35.813Z,37.47
2019-06-25T09:16:28.864Z,38.11
2019-06-25T09:17:28.923Z,39.14
2019-06-25T09:19:21.954Z,39.42
2019-06-25T09:20:22.077Z,37.71
2019-06-25T09:22:15.095Z,38.59
2019-06-25T09:23:15.144Z,37.73
2019-06-25T09:25:08.175Z,37.35
2019-06-25T09:26:08.257Z,37.91
2019-06-25T09:28:01.297Z,40.39
2019-06-25T09:29:01.438Z,39.02
2019-06-25T09:30:54.431Z,38.39
2019-06-25T09:31:54.483Z,38.60
2019-06-25T09:33:47.522Z,38.68
2019-06-25T09:34:47.599Z,39.46
2019-06-25T09:36:40.636Z,40.11
2019-06-25T09:37:40.746Z,41.49
2019-06-25T09:39:33.765Z,43.24
2019-06-25T09:40:33.838Z,45.64
2019-06-25T09:42:26.889Z,45.03
2019-06-25T09:43:26.942Z,45.62
2019-06-25T09:45:19.995Z,46.78
2019-06-25T09:46:20.050Z,47.34
2019-06-25T09:48:13.091Z,46.78
2019-06-25T09:49:13.150Z,47.47
2019-06-25T09:51:06.688Z,46.95
2019-06-25T09:52:06.758Z,48.43
2019-06-25T09:53:59.789Z,47.17
2019-06-25T09:54:59.866Z,46.97
2019-06-25T09:56:52.877Z,46.46
2019-06-25T09:57:52.933Z,47.03
2019-06-25T09:59:45.954Z,49.11
2019-06-25T10:00:46.028Z,47.25
2019-06-25T10:02:39.056Z,47.15
2019-06-25T10:03:39.119Z,48.25
2019-06-25T10:05:32.225Z,47.36
2019-06-25T10:06:32.209Z,46.88
2019-06-25T10:08:25.244Z,46.93
2019-06-25T10:09:25.296Z,48.11
2019-06-25T10:11:18.334Z,48.28
2019-06-25T10:12:18.409Z,47.91
2019-06-25T10:14:11.437Z,47.83
2019-06-25T10:15:11.492Z,48.99
2019-06-25T10:17:04.517Z,47.93
2019-06-25T10:18:04.577Z,47.61
2019-06-25T10:19:57.614Z,48.60
2019-06-25T10:20:57.681Z,48.40
2019-06-25T10:22:53.021Z,47.32
2019-06-25T10:23:50.821Z,48.52
2019-06-25T10:25:43.833Z,47.34
2019-06-25T10:26:43.872Z,48.43
2019-06-25T10:28:39.448Z,48.43
2019-06-25T10:29:36.958Z,48.45
2019-06-25T10:31:29.994Z,46.56
2019-06-25T10:32:30.037Z,45.67
2019-06-25T10:34:23.071Z,46.44
2019-06-25T10:35:23.137Z,46.44
2019-06-25T10:37:16.159Z,46.56
2019-06-25T10:38:16.205Z,46.56
2019-06-25T10:40:09.278Z,46.88
2019-06-25T10:41:09.299Z,46.48
2019-06-25T10:43:02.412Z,45.10
2019-06-25T10:44:02.460Z,45.72
2019-06-25T10:45:55.484Z,44.22
2019-06-25T10:46:55.520Z,44.42
2019-06-25T10:48:48.563Z,44.79
2019-06-25T10:49:48.605Z,45.09
2019-06-25T10:51:42.151Z,44.32
2019-06-25T10:52:42.223Z,44.12
2019-06-25T10:54:35.223Z,44.73
2019-06-25T10:55:35.289Z,45.72
2019-06-25T10:57:28.314Z,44.64
2019-06-25T10:58:28.389Z,44.24
2019-06-25T11:00:21.398Z,43.75
2019-06-25T11:01:21.462Z,43.65
2019-06-25T11:03:14.520Z,43.83
2019-06-25T11:04:14.581Z,45.60
2019-06-25T11:06:07.582Z,44.42
2019-06-25T11:07:08.066Z,44.42
2019-06-25T11:09:00.695Z,45.79
2019-06-25T11:10:00.753Z,45.10
2019-06-25T11:11:53.767Z,44.81
2019-06-25T11:12:53.834Z,44.22
2019-06-25T11:14:46.850Z,43.63
2019-06-25T11:15:46.900Z,44.22
2019-06-25T11:17:43.134Z,43.14
2019-06-25T11:18:39.998Z,43.63
2019-06-25T11:20:32.992Z,43.63
2019-06-25T11:21:33.064Z,44.42
2019-06-25T11:23:26.094Z,43.83
2019-06-25T11:24:26.152Z,44.02
2019-06-25T11:26:23.258Z,44.62
2019-06-25T11:27:19.227Z,44.34
2019-06-25T11:29:12.237Z,43.33
2019-06-25T11:30:12.317Z,44.42
2019-06-25T11:32:05.341Z,43.55
2019-06-25T11:33:05.426Z,42.96
2019-06-25T11:34:58.433Z,43.77
2019-06-25T11:35:58.481Z,42.28
2019-06-25T11:37:51.490Z,42.55
2019-06-25T11:38:51.561Z,43.36
2019-06-25T11:40:44.594Z,45.72
2019-06-25T11:41:44.689Z,43.95
2019-06-25T11:43:44.289Z,44.17
2019-06-25T11:44:37.735Z,44.56
2019-06-25T11:46:30.760Z,44.26
2019-06-25T11:47:30.820Z,42.79
2019-06-25T11:49:23.840Z,43.28
2019-06-25T11:50:23.897Z,42.57
2019-06-25T11:52:16.911Z,42.69
2019-06-25T11:53:16.983Z,42.00
2019-06-25T11:55:10.122Z,42.47
2019-06-25T11:56:10.183Z,43.26
2019-06-25T11:58:03.251Z,42.89
2019-06-25T11:59:03.288Z,41.51
2019-06-25T12:00:56.827Z,41.80
2019-06-25T12:01:56.350Z,41.80
2019-06-25T12:03:49.360Z,42.79
2019-06-25T12:04:49.438Z,41.02
2019-06-25T12:06:53.423Z,41.80
2019-06-25T12:07:42.516Z,41.22
2019-06-25T12:09:35.534Z,40.92
2019-06-25T12:10:35.603Z,41.51
2019-06-25T12:12:28.637Z,42.79
2019-06-25T12:13:28.688Z,42.52
2019-06-25T12:15:21.700Z,42.20
2019-06-25T12:16:21.777Z,41.73
2019-06-25T12:18:14.805Z,40.53
2019-06-25T12:19:14.859Z,40.33
2019-06-25T12:21:07.869Z,42.22
2019-06-25T12:22:07.943Z,42.22
2019-06-25T12:24:00.985Z,41.43
2019-06-25T12:25:01.038Z,42.81
2019-06-25T12:26:56.580Z,42.41
2019-06-25T12:27:54.121Z,41.63
2019-06-25T12:29:47.148Z,41.51
2019-06-25T12:30:47.201Z,42.10
2019-06-25T12:32:40.239Z,42.41
2019-06-25T12:33:40.303Z,41.53
2019-06-25T12:35:33.329Z,41.24
2019-06-25T12:36:33.384Z,40.84
2019-06-25T12:38:26.400Z,41.04
2019-06-25T12:39:26.473Z,41.63
2019-06-25T12:41:19.513Z,40.74
2019-06-25T12:42:19.561Z,40.35
2019-06-25T12:44:12.571Z,41.63
2019-06-25T12:45:12.646Z,42.12
2019-06-25T12:47:05.670Z,40.76
2019-06-25T12:48:05.729Z,41.35
2019-06-25T12:49:58.744Z,41.65
2019-06-25T12:50:58.808Z,41.27
2019-06-25T12:52:51.870Z,40.96
2019-06-25T12:53:51.891Z,40.76
2019-06-25T12:55:44.921Z,40.96
2019-06-25T12:56:44.971Z,40.96
2019-06-25T12:58:37.995Z,42.24
2019-06-25T12:59:38.072Z,41.16
2019-06-25T13:01:40.683Z,40.66
2019-06-25T13:02:31.149Z,41.35
2019-06-25T13:04:24.182Z,40.76
2019-06-25T13:05:24.231Z,41.16
2019-06-25T13:07:25.518Z,40.69
2019-06-25T13:08:17.318Z,41.08
2019-06-25T13:10:10.364Z,40.76
2019-06-25T13:11:10.401Z,40.47
2019-06-25T13:13:03.432Z,41.65
2019-06-25T13:14:03.561Z,41.06
2019-06-25T13:15:56.545Z,41.73
2019-06-25T13:16:56.598Z,42.44
2019-06-25T13:18:49.664Z,41.85
2019-06-25T13:19:49.679Z,41.65
2019-06-25T13:21:42.706Z,41.25
2019-06-25T13:22:42.762Z,40.66
2019-06-25T13:24:35.805Z,40.47
2019-06-25T13:25:35.875Z,40.27
2019-06-25T13:27:28.876Z,43.42
2019-06-25T13:28:28.937Z,42.24
2019-06-25T13:30:21.943Z,41.17
2019-06-25T13:31:22.016Z,40.88
2019-06-25T13:33:15.039Z,40.00
2019-06-25T13:34:15.102Z,41.17
2019-06-25T13:36:08.141Z,41.08
2019-06-25T13:37:08.184Z,42.47
2019-06-25T13:39:01.216Z,41.59
2019-06-25T13:40:01.266Z,40.31
2019-06-25T13:42:04.107Z,41.00
2019-06-25T13:42:54.385Z,40.80
2019-06-25T13:44:47.403Z,40.70
2019-06-25T13:45:47.463Z,41.09
2019-06-25T13:47:40.502Z,41.00
2019-06-25T13:48:40.566Z,40.58
2019-06-25T13:50:33.620Z,40.69
2019-06-25T13:51:33.648Z,40.98
2019-06-25T13:53:26.657Z,40.58
2019-06-25T13:54:26.735Z,40.78
2019-06-25T13:56:20.033Z,41.16
2019-06-25T13:57:19.828Z,40.66
2019-06-25T13:59:12.869Z,41.16
2019-06-25T14:00:13.332Z,41.06
2019-06-25T14:02:05.996Z,40.96
2019-06-25T14:03:05.981Z,40.88
2019-06-25T14:04:58.998Z,40.58
2019-06-25T14:05:59.076Z,40.78
2019-06-25T14:07:58.962Z,40.98
2019-06-25T14:08:52.157Z,41.17
2019-06-25T14:10:45.197Z,41.20
2019-06-25T14:11:45.246Z,40.88
2019-06-25T14:13:38.273Z,41.30
2019-06-25T14:14:38.331Z,41.99
2019-06-25T14:16:31.380Z,41.69
2019-06-25T14:17:31.446Z,41.00
2019-06-25T14:19:24.485Z,39.92
2019-06-25T14:20:24.538Z,40.90
2019-06-25T14:22:17.566Z,40.72
2019-06-25T14:23:17.643Z,40.63
2019-06-25T14:25:10.672Z,41.02
2019-06-25T14:26:11.216Z,40.43
2019-06-25T14:28:03.734Z,40.43
2019-06-25T14:29:03.804Z,40.92
2019-06-25T14:30:56.837Z,40.35
2019-06-25T14:31:56.898Z,38.95
2019-06-25T14:33:49.921Z,41.20
2019-06-25T14:34:49.977Z,39.73
2019-06-25T14:36:46.012Z,39.03
2019-06-25T14:37:46.064Z,39.52
2019-06-25T14:39:39.113Z,40.51
2019-06-25T14:40:39.163Z,39.92
2019-06-25T14:42:32.173Z,41.12
2019-06-25T14:43:32.251Z,40.63
2019-06-25T14:45:25.279Z,40.23
2019-06-25T14:46:25.337Z,41.22
2019-06-25T14:48:18.375Z,38.95
2019-06-25T14:49:18.444Z,39.15
2019-06-25T14:51:11.969Z,38.93
2019-06-25T14:52:12.012Z,38.54
2019-06-25T14:54:05.035Z,39.23
2019-06-25T14:55:05.107Z,39.23
2019-06-25T14:56:58.136Z,39.32
2019-06-25T14:57:58.195Z,39.32
2019-06-25T14:59:51.210Z,39.72
2019-06-25T15:00:51.286Z,40.82
2019-06-25T15:02:44.307Z,39.44
2019-06-25T15:03:44.368Z,39.54
2019-06-25T15:05:37.376Z,39.56
2019-06-25T15:06:37.448Z,38.87
2019-06-25T15:08:31.858Z,39.95
2019-06-25T15:09:43.481Z,38.87
2019-06-25T15:11:23.583Z,40.35
2019-06-25T15:12:23.631Z,39.36
2019-06-25T15:14:16.658Z,39.09
2019-06-25T15:15:31.704Z,38.96
2019-06-25T15:17:09.738Z,38.96
2019-06-25T15:18:09.802Z,37.59
2019-06-25T15:20:02.838Z,38.18
2019-06-25T15:21:02.879Z,38.08
2019-06-25T15:22:55.994Z,38.96
2019-06-25T15:23:56.048Z,39.58
2019-06-25T15:25:49.057Z,38.39
2019-06-25T15:26:49.131Z,37.19
2019-06-25T15:28:42.157Z,37.19
2019-06-25T15:29:42.218Z,36.99
2019-06-25T15:31:35.305Z,39.15
2019-06-25T15:32:35.319Z,37.66
2019-06-25T15:34:30.397Z,37.87
2019-06-25T15:35:28.401Z,37.76
2019-06-25T15:37:21.436Z,38.95
2019-06-25T15:38:21.488Z,39.15
2019-06-25T15:40:14.499Z,38.65
2019-06-25T15:41:14.660Z,38.65
2019-06-25T15:43:07.596Z,38.64
2019-06-25T15:44:07.664Z,38.24
2019-06-25T15:46:00.672Z,37.65
2019-06-25T15:47:00.750Z,38.14
2019-06-25T15:48:53.767Z,37.74
2019-06-25T15:49:53.830Z,37.65
2019-06-25T15:51:47.355Z,38.93
2019-06-25T15:52:47.426Z,40.51
2019-06-25T15:54:40.462Z,39.52
2019-06-25T15:55:40.509Z,39.32
2019-06-25T15:57:33.516Z,39.52
2019-06-25T15:58:33.597Z,39.72
2019-06-25T16:00:26.652Z,40.61
2019-06-25T16:01:26.696Z,40.11
2019-06-25T16:03:19.706Z,39.62
2019-06-25T16:04:19.780Z,39.92
2019-06-25T16:06:12.809Z,41.17
2019-06-25T16:07:12.861Z,41.57
2019-06-25T16:09:05.887Z,40.58
2019-06-25T16:10:05.945Z,40.88
2019-06-25T16:11:58.954Z,41.27
2019-06-25T16:12:59.026Z,41.38
2019-06-25T16:14:52.058Z,41.27
2019-06-25T16:15:52.112Z,41.08
2019-06-25T16:17:45.142Z,41.25
2019-06-25T16:18:45.195Z,41.08
2019-06-25T16:20:38.229Z,42.07
2019-06-25T16:21:38.280Z,41.35
2019-06-25T16:23:31.300Z,41.25
2019-06-25T16:24:31.378Z,41.45
2019-06-25T16:26:24.394Z,41.65
2019-06-25T16:27:24.449Z,41.55
2019-06-25T16:29:17.479Z,42.14
2019-06-25T16:30:17.546Z,42.34
2019-06-25T16:32:10.548Z,43.05
2019-06-25T16:33:10.625Z,43.52
2019-06-25T16:35:03.704Z,42.04
2019-06-25T16:36:03.700Z,42.24
2019-06-25T16:37:56.738Z,42.83
2019-06-25T16:38:56.788Z,42.93
2019-06-25T16:40:49.819Z,43.42
2019-06-25T16:41:49.881Z,43.42
2019-06-25T16:43:43.000Z,43.52
2019-06-25T16:44:42.975Z,42.93
2019-06-25T16:46:36.066Z,42.63
2019-06-25T16:47:36.097Z,42.24
2019-06-25T16:49:29.098Z,43.71
2019-06-25T16:50:29.158Z,44.21
2019-06-25T16:52:22.191Z,43.89
2019-06-25T16:53:22.239Z,44.09
2019-06-25T16:55:15.268Z,44.38
2019-06-25T16:56:15.310Z,43.30
2019-06-25T16:58:08.321Z,43.20
2019-06-25T16:59:08.392Z,43.40
2019-06-25T17:01:01.423Z,43.89
2019-06-25T17:02:01.471Z,43.99
2019-06-25T17:03:54.487Z,43.50
2019-06-25T17:04:54.566Z,43.30
2019-06-25T17:06:47.599Z,43.50
2019-06-25T17:07:47.653Z,43.60
2019-06-25T17:09:40.680Z,43.99
2019-06-25T17:10:40.739Z,45.47
2019-06-25T17:12:33.834Z,43.28
2019-06-25T17:13:33.868Z,43.79
2019-06-25T17:15:26.877Z,44.46
2019-06-25T17:16:26.948Z,43.99
2019-06-25T17:18:20.001Z,44.26
2019-06-25T17:19:20.053Z,43.38
2019-06-25T17:21:13.075Z,43.68
2019-06-25T17:22:13.137Z,42.99
2019-06-25T17:24:07.479Z,44.07
2019-06-25T17:25:06.216Z,42.20
2019-06-25T17:26:59.247Z,44.76
2019-06-25T17:27:59.302Z,44.85
2019-06-25T17:29:52.384Z,46.23
2019-06-25T17:30:52.435Z,44.17
2019-06-25T17:32:45.454Z,44.56
2019-06-25T17:33:45.529Z,44.56
2019-06-25T17:35:38.553Z,44.85
2019-06-25T17:36:38.609Z,44.85
2019-06-25T17:38:31.658Z,44.85
2019-06-25T17:39:31.704Z,45.25
2019-06-25T17:41:24.723Z,45.03
2019-06-25T17:42:24.799Z,45.23
2019-06-25T17:44:17.816Z,47.00
2019-06-25T17:45:17.869Z,47.02
2019-06-25T17:47:10.940Z,47.39
2019-06-25T17:48:14.413Z,48.67
2019-06-25T17:50:03.991Z,48.08
2019-06-25T17:51:04.062Z,47.69
2019-06-25T17:52:57.161Z,48.08
2019-06-25T17:53:57.191Z,48.74
2019-06-25T17:55:50.199Z,49.92
2019-06-25T17:56:50.285Z,50.83
2019-06-25T17:58:43.315Z,49.13
2019-06-25T17:59:43.379Z,47.96
2019-06-25T18:01:37.914Z,49.92
2019-06-25T18:02:37.940Z,49.33
2019-06-25T18:04:56.813Z,49.82
2019-06-25T18:06:03.765Z,52.48
2019-06-25T18:08:02.154Z,51.30
2019-06-25T18:09:02.107Z,49.70
2019-06-25T18:11:07.724Z,51.07
2019-06-25T18:12:07.766Z,52.35
2019-06-25T18:14:12.520Z,52.35
2019-06-25T18:15:12.563Z,52.28
2019-06-25T18:17:05.556Z,51.76
2019-06-25T18:18:05.933Z,52.45
2019-06-25T18:19:58.814Z,53.44
2019-06-25T18:20:58.803Z,53.14
2019-06-25T18:22:51.906Z,53.44
2019-06-25T18:23:51.944Z,53.83
2019-06-25T18:25:44.971Z,55.00
2019-06-25T18:26:45.029Z,55.40
2019-06-25T18:28:38.054Z,53.63
2019-06-25T18:29:38.222Z,54.58
2019-06-25T18:31:31.168Z,53.21
2019-06-25T18:32:31.247Z,54.66
2019-06-25T18:34:24.245Z,56.62
2019-06-25T18:35:24.312Z,57.90